createdAt,value
2023-04-28T00:02:16.000Z,5.03
2023-04-28T00:05:06.911Z,2.75
2023-04-28T00:07:57.421Z,3.70
2023-04-28T00:10:46.390Z,7.15
2023-04-28T00:13:35.000Z,2.38
2023-04-28T00:16:23.613Z,2.83
2023-04-28T00:19:12.320Z,3.92
2023-04-28T00:22:02.298Z,3.45
2023-04-28T00:24:51.141Z,4.32
2023-04-28T00:27:39.835Z,3.85
2023-04-28T00:30:28.474Z,4.53
2023-04-28T00:33:17.073Z,2.95
2023-04-28T00:36:06.070Z,5.03
2023-04-28T00:38:55.782Z,2.97
2023-04-28T00:41:44.364Z,3.35
2023-04-28T00:44:32.956Z,10.20
2023-04-28T00:47:21.599Z,3.28
2023-04-28T00:50:11.525Z,4.38
2023-04-28T00:53:01.780Z,3.55
2023-04-28T00:55:57.071Z,3.58
2023-04-28T00:58:45.781Z,6.40
2023-04-28T01:01:34.614Z,3.22
2023-04-28T01:04:24.436Z,3.97
2023-04-28T01:07:13.177Z,4.25
2023-04-28T01:10:01.900Z,6.00
2023-04-28T01:12:51.867Z,2.67
2023-04-28T01:15:40.614Z,4.90
2023-04-28T01:18:29.716Z,6.10
2023-04-28T01:21:29.089Z,4.35
2023-04-28T01:24:19.915Z,3.10
2023-04-28T01:27:08.501Z,2.75
2023-04-28T01:29:57.344Z,2.85
2023-04-28T01:32:46.151Z,4.18
2023-04-28T01:35:34.858Z,4.22
2023-04-28T01:38:23.447Z,4.97
2023-04-28T01:41:13.460Z,2.70
2023-04-28T01:44:02.248Z,4.35
2023-04-28T01:46:50.886Z,4.65
2023-04-28T01:49:39.490Z,5.15
2023-04-28T01:52:28.258Z,2.65
2023-04-28T01:55:18.239Z,4.07
2023-04-28T01:58:08.269Z,5.63
2023-04-28T02:00:56.955Z,2.28
2023-04-28T02:03:45.941Z,3.03
2023-04-28T02:06:34.787Z,3.67
2023-04-28T02:09:23.490Z,3.75
2023-04-28T02:12:12.140Z,5.38
2023-04-28T02:15:02.079Z,3.13
2023-04-28T02:17:50.654Z,4.57
2023-04-28T02:20:39.262Z,4.65
2023-04-28T02:23:27.873Z,3.35
2023-04-28T02:26:17.142Z,2.85
2023-04-28T02:29:05.874Z,4.43
2023-04-28T02:31:55.851Z,6.40
2023-04-28T02:34:44.614Z,2.67
2023-04-28T02:37:33.213Z,3.88
2023-04-28T02:40:21.950Z,2.40
2023-04-28T02:43:10.658Z,2.97
2023-04-28T02:45:59.653Z,4.32
2023-04-28T02:48:49.541Z,2.92
2023-04-28T02:51:38.152Z,3.53
2023-04-28T02:54:28.453Z,4.47
2023-04-28T02:57:17.110Z,3.75
2023-04-28T03:00:06.661Z,2.58
2023-04-28T03:02:55.781Z,3.72
2023-04-28T03:05:46.127Z,2.67
2023-04-28T03:08:34.842Z,3.15
2023-04-28T03:11:23.485Z,5.55
2023-04-28T03:14:12.119Z,2.70
2023-04-28T03:17:00.786Z,2.90
2023-04-28T03:19:49.471Z,5.70
2023-04-28T03:22:39.495Z,4.15
2023-04-28T03:25:28.196Z,3.53
2023-04-28T03:28:17.260Z,2.65
2023-04-28T03:31:05.994Z,4.72
2023-04-28T03:33:54.613Z,2.28
2023-04-28T03:36:43.334Z,4.15
2023-04-28T03:39:33.265Z,3.03
2023-04-28T03:42:22.062Z,2.80
2023-04-28T03:45:11.932Z,3.83
2023-04-28T03:48:00.706Z,2.35
2023-04-28T03:50:49.414Z,2.50
2023-04-28T03:53:38.061Z,2.65
2023-04-28T03:56:28.053Z,2.67
2023-04-28T03:59:16.717Z,3.28
2023-04-28T04:02:05.441Z,3.13
2023-04-28T04:04:54.281Z,3.88
2023-04-28T04:07:42.960Z,2.45
2023-04-28T04:10:31.789Z,3.58
2023-04-28T04:13:21.952Z,2.50
2023-04-28T04:16:10.804Z,2.55
2023-04-28T04:18:59.635Z,4.65
2023-04-28T04:21:48.423Z,4.07
2023-04-28T04:24:37.151Z,2.50
2023-04-28T04:27:25.789Z,6.75
2023-04-28T04:30:16.168Z,5.20
2023-04-28T04:33:04.829Z,6.40
2023-04-28T04:35:53.501Z,3.03
2023-04-28T04:38:42.134Z,3.60
2023-04-28T04:41:30.786Z,6.70
2023-04-28T04:44:19.636Z,6.07
2023-04-28T04:47:10.055Z,3.92
2023-04-28T04:49:58.780Z,4.05
2023-04-28T04:52:47.419Z,5.63
2023-04-28T04:55:36.174Z,3.38
2023-04-28T04:58:25.084Z,6.13
2023-04-28T05:01:13.831Z,3.10
2023-04-28T05:04:03.915Z,3.33
2023-04-28T05:06:52.817Z,3.58
2023-04-28T05:09:41.456Z,3.20
2023-04-28T05:12:30.044Z,3.95
2023-04-28T05:15:18.777Z,6.68
2023-04-28T05:18:11.042Z,6.13
2023-04-28T05:21:01.705Z,3.03
2023-04-28T05:23:50.459Z,5.45
2023-04-28T05:26:38.899Z,5.75
2023-04-28T05:29:27.555Z,4.65
2023-04-28T05:32:16.274Z,4.57
2023-04-28T05:35:05.492Z,5.10
2023-04-28T05:37:55.622Z,7.22
2023-04-28T05:40:44.298Z,5.45
2023-04-28T05:43:32.972Z,4.85
2023-04-28T05:46:30.225Z,4.88
2023-04-28T05:49:19.789Z,3.97
2023-04-28T05:52:08.613Z,4.10
2023-04-28T05:54:58.730Z,7.97
2023-04-28T05:57:53.199Z,6.68
2023-04-28T06:00:44.730Z,6.05
2023-04-28T06:03:33.859Z,5.85
2023-04-28T06:06:22.806Z,4.35
2023-04-28T06:09:11.443Z,6.28
2023-04-28T06:12:01.584Z,3.30
2023-04-28T06:14:51.874Z,7.72
2023-04-28T06:17:40.884Z,7.05
2023-04-28T06:20:29.601Z,5.65
2023-04-28T06:23:18.262Z,8.35
2023-04-28T06:26:06.884Z,6.82
2023-04-28T06:28:57.110Z,6.00
2023-04-28T06:31:45.713Z,3.95
2023-04-28T06:34:34.379Z,3.67
2023-04-28T06:37:23.532Z,4.28
2023-04-28T06:40:12.669Z,5.13
2023-04-28T06:43:01.662Z,5.47
2023-04-28T06:45:52.112Z,4.32
2023-04-28T06:48:40.962Z,3.67
2023-04-28T06:51:29.874Z,5.03
2023-04-28T06:54:18.808Z,5.47
2023-04-28T06:57:07.716Z,5.07
2023-04-28T06:59:56.801Z,3.92
2023-04-28T07:02:47.010Z,2.88
2023-04-28T07:05:36.415Z,3.72
2023-04-28T07:08:25.230Z,3.35
2023-04-28T07:11:14.103Z,3.58
2023-04-28T07:14:02.761Z,3.25
2023-04-28T07:16:51.460Z,4.40
2023-04-28T07:19:41.594Z,4.10
2023-04-28T07:22:30.186Z,3.60
2023-04-28T07:25:19.056Z,5.20
2023-04-28T07:28:07.988Z,4.32
2023-04-28T07:30:57.557Z,3.13
2023-04-28T07:33:46.194Z,3.08
2023-04-28T07:36:36.416Z,4.25
2023-04-28T07:39:25.112Z,4.45
2023-04-28T07:42:13.759Z,3.00
2023-04-28T07:45:03.749Z,2.67
2023-04-28T07:47:52.451Z,3.20
2023-04-28T07:50:41.106Z,6.47
2023-04-28T07:53:31.217Z,6.43
2023-04-28T07:56:19.942Z,4.82
2023-04-28T07:59:09.551Z,3.80
2023-04-28T08:01:58.284Z,4.10
2023-04-28T08:04:47.110Z,6.75
2023-04-28T08:07:37.059Z,5.28
2023-04-28T08:10:27.809Z,5.05
2023-04-28T08:13:16.708Z,4.63
2023-04-28T08:16:05.644Z,2.42
2023-04-28T08:18:54.475Z,3.97
2023-04-28T08:21:43.139Z,4.03
2023-04-28T08:24:34.330Z,4.10
2023-04-28T08:27:25.804Z,3.03
2023-04-28T08:30:14.627Z,3.92
2023-04-28T08:33:03.355Z,3.53
2023-04-28T08:35:52.169Z,4.15
2023-04-28T08:38:40.963Z,4.10
2023-04-28T08:41:30.062Z,7.72
2023-04-28T08:44:20.335Z,2.25
2023-04-28T08:47:14.453Z,4.05
2023-04-28T08:50:05.999Z,5.97
2023-04-28T08:52:56.811Z,2.70
2023-04-28T08:55:46.497Z,3.60
2023-04-28T08:58:38.113Z,4.97
2023-04-28T09:01:28.751Z,5.00
2023-04-28T09:04:19.704Z,2.58
2023-04-28T09:07:13.137Z,2.90
2023-04-28T09:10:23.151Z,3.47
2023-04-28T09:13:11.858Z,4.50
2023-04-28T09:16:02.903Z,2.08
2023-04-28T09:18:59.403Z,2.28
2023-04-28T09:21:49.805Z,2.85
2023-04-28T09:24:40.552Z,1.70
2023-04-28T09:27:30.064Z,2.38
2023-04-28T09:30:18.843Z,3.70
2023-04-28T09:33:10.699Z,1.75
2023-04-28T09:36:02.073Z,1.90
2023-04-28T09:38:52.079Z,6.40
2023-04-28T09:41:41.656Z,2.72
2023-04-28T09:44:30.578Z,4.15
2023-04-28T09:47:23.382Z,2.58
2023-04-28T09:50:15.179Z,2.53
2023-04-28T09:53:05.966Z,326.55
2023-04-28T09:55:56.855Z,380.88
2023-04-28T09:58:48.163Z,244.45
2023-04-28T10:01:39.983Z,124.80
2023-04-28T10:04:31.571Z,87.53
2023-04-28T10:07:23.454Z,61.58
2023-04-28T10:10:15.087Z,44.30
2023-04-28T10:13:04.755Z,46.97
2023-04-28T10:15:55.412Z,42.88
2023-04-28T10:18:45.051Z,28.05
2023-04-28T10:21:41.802Z,24.77
2023-04-28T10:24:31.966Z,21.70
2023-04-28T10:27:23.172Z,19.25
2023-04-28T10:30:26.336Z,15.38
2023-04-28T10:33:29.641Z,11.10
2023-04-28T10:36:52.561Z,12.02
2023-04-28T10:39:41.422Z,15.15
2023-04-28T10:42:57.465Z,14.23
2023-04-28T10:46:03.932Z,17.15
2023-04-28T10:48:57.292Z,18.77
2023-04-28T10:51:46.031Z,15.00
2023-04-28T10:54:34.669Z,11.52
2023-04-28T10:57:23.510Z,13.55
2023-04-28T11:00:31.616Z,14.80
2023-04-28T11:03:52.357Z,11.10
2023-04-28T11:06:42.447Z,13.18
2023-04-28T11:09:50.357Z,11.68
2023-04-28T11:12:58.973Z,6.78
2023-04-28T11:16:04.529Z,6.63
2023-04-28T11:19:06.910Z,7.88
2023-04-28T11:21:57.921Z,11.80
2023-04-28T11:24:58.399Z,11.82
2023-04-28T11:27:47.240Z,8.77
2023-04-28T11:30:36.088Z,9.65
2023-04-28T11:33:26.328Z,5.47
2023-04-28T11:36:38.335Z,7.78
2023-04-28T11:39:29.770Z,6.18
2023-04-28T11:42:18.528Z,4.90
2023-04-28T11:45:09.305Z,6.18
2023-04-28T11:48:00.934Z,3.92
2023-04-28T11:50:51.046Z,7.30
2023-04-28T11:53:43.977Z,8.13
2023-04-28T11:56:33.207Z,4.10
2023-04-28T11:59:26.861Z,5.38
2023-04-28T12:02:17.103Z,7.53
2023-04-28T12:05:07.983Z,7.15
2023-04-28T12:07:58.121Z,4.80
2023-04-28T12:11:10.855Z,5.68
2023-04-28T12:14:10.589Z,4.20
2023-04-28T12:16:59.583Z,4.55
2023-04-28T12:19:48.441Z,3.55
2023-04-28T12:22:46.818Z,3.28
2023-04-28T12:25:45.668Z,3.17
2023-04-28T12:28:41.689Z,3.35
2023-04-28T12:31:30.312Z,2.10
2023-04-28T12:34:19.030Z,4.43
2023-04-28T12:37:08.407Z,3.20
2023-04-28T12:40:00.431Z,5.47
2023-04-28T12:42:50.846Z,7.43
2023-04-28T12:45:39.788Z,4.30
2023-04-28T12:48:29.292Z,2.80
2023-04-28T12:51:17.921Z,5.45
2023-04-28T12:54:09.741Z,5.28
2023-04-28T12:57:02.089Z,3.10
2023-04-28T12:59:52.796Z,7.05
2023-04-28T13:02:41.672Z,3.58
2023-04-28T13:05:30.604Z,2.95
2023-04-28T13:08:19.283Z,3.13
2023-04-28T13:11:19.667Z,3.65
2023-04-28T13:14:13.621Z,4.47
2023-04-28T13:17:03.865Z,3.28
2023-04-28T13:19:52.553Z,3.92
2023-04-28T13:22:42.004Z,2.70
2023-04-28T13:25:31.410Z,3.28
2023-04-28T13:28:20.106Z,4.90
2023-04-28T13:31:08.928Z,10.82
2023-04-28T13:34:01.981Z,10.40
2023-04-28T13:36:51.036Z,3.50
2023-04-28T13:39:39.913Z,4.32
2023-04-28T13:42:28.588Z,9.00
2023-04-28T13:45:17.826Z,4.93
2023-04-28T13:48:07.559Z,5.55
2023-04-28T13:50:57.579Z,5.03
2023-04-28T13:53:46.674Z,5.13
2023-04-28T13:56:36.425Z,4.25
2023-04-28T13:59:25.249Z,3.75
2023-04-28T14:02:14.091Z,5.35
2023-04-28T14:05:02.786Z,2.95
2023-04-28T14:07:53.128Z,7.00
2023-04-28T14:10:41.852Z,5.40
2023-04-28T14:13:30.705Z,3.17
2023-04-28T14:16:19.434Z,5.47
2023-04-28T14:19:08.797Z,3.50
2023-04-28T14:21:59.013Z,6.22
2023-04-28T14:24:49.458Z,5.40
2023-04-28T14:27:38.318Z,5.03
2023-04-28T14:30:27.379Z,4.53
2023-04-28T14:33:16.166Z,5.18
2023-04-28T14:36:05.133Z,4.28
2023-04-28T14:38:53.826Z,3.83
2023-04-28T14:41:43.755Z,4.15
2023-04-28T14:44:32.361Z,4.40
2023-04-28T14:47:22.320Z,3.03
2023-04-28T14:50:13.869Z,3.85
2023-04-28T14:53:07.510Z,3.92
2023-04-28T14:56:02.057Z,5.40
2023-04-28T14:59:02.767Z,6.10
2023-04-28T15:01:51.751Z,5.00
2023-04-28T15:04:40.885Z,7.55
2023-04-28T15:07:31.640Z,2.80
2023-04-28T15:10:20.591Z,6.47
2023-04-28T15:13:09.254Z,3.00
2023-04-28T15:15:59.530Z,6.32
2023-04-28T15:18:48.486Z,3.78
2023-04-28T15:21:37.180Z,4.00
2023-04-28T15:24:25.968Z,13.65
2023-04-28T15:27:14.593Z,2.17
2023-04-28T15:30:03.382Z,3.45
2023-04-28T15:32:53.654Z,3.90
2023-04-28T15:35:42.463Z,2.15
2023-04-28T15:38:31.998Z,10.82
2023-04-28T15:41:20.955Z,3.60
2023-04-28T15:44:10.606Z,2.40
2023-04-28T15:46:59.403Z,3.25
2023-04-28T15:49:50.282Z,4.97
2023-04-28T15:52:45.871Z,2.38
2023-04-28T15:55:34.961Z,1.85
2023-04-28T15:58:23.940Z,3.25
2023-04-28T16:01:12.623Z,3.50
2023-04-28T16:04:01.816Z,4.55
2023-04-28T16:06:52.966Z,1.80
2023-04-28T16:09:41.564Z,5.15
2023-04-28T16:12:31.043Z,3.90
2023-04-28T16:15:19.883Z,2.08
2023-04-28T16:18:08.742Z,2.80
2023-04-28T16:20:57.539Z,1.08
2023-04-28T16:23:47.779Z,1.98
2023-04-28T16:26:36.622Z,4.95
2023-04-28T16:29:25.346Z,4.28
2023-04-28T16:32:14.157Z,2.47
2023-04-28T16:35:03.107Z,4.78
2023-04-28T16:37:51.875Z,2.92
2023-04-28T16:40:41.953Z,4.32
2023-04-28T16:43:32.126Z,2.58
2023-04-28T16:46:21.063Z,3.15
2023-04-28T16:49:10.150Z,1.20
2023-04-28T16:52:00.197Z,2.50
2023-04-28T16:54:48.897Z,1.08
2023-04-28T16:57:39.089Z,1.27
2023-04-28T17:00:27.839Z,1.27
2023-04-28T17:03:16.716Z,2.97
2023-04-28T17:06:05.976Z,4.43
2023-04-28T17:08:54.575Z,1.95
2023-04-28T17:11:43.409Z,5.90
2023-04-28T17:14:33.434Z,1.02
2023-04-28T17:17:22.407Z,2.85
2023-04-28T17:20:16.575Z,2.53
2023-04-28T17:23:05.448Z,2.42
2023-04-28T17:25:54.164Z,2.42
2023-04-28T17:28:44.032Z,7.43
2023-04-28T17:31:34.926Z,10.10
2023-04-28T17:34:25.217Z,5.97
2023-04-28T17:37:13.873Z,4.38
2023-04-28T17:40:04.205Z,3.63
2023-04-28T17:42:53.188Z,3.97
2023-04-28T17:45:41.861Z,5.78
2023-04-28T17:48:32.091Z,4.88
2023-04-28T17:51:20.991Z,4.32
2023-04-28T17:54:09.758Z,5.80
2023-04-28T17:56:58.464Z,4.22
2023-04-28T17:59:51.262Z,4.32
2023-04-28T18:02:40.107Z,3.78
2023-04-28T18:05:31.337Z,3.13
2023-04-28T18:08:19.961Z,2.85
2023-04-28T18:11:09.993Z,3.75
2023-04-28T18:13:58.903Z,2.30
2023-04-28T18:16:47.936Z,4.45
2023-04-28T18:19:37.034Z,4.88
2023-04-28T18:22:27.886Z,1.42
2023-04-28T18:25:19.147Z,2.58
2023-04-28T18:28:10.553Z,2.28
2023-04-28T18:30:58.109Z,3.53
2023-04-28T18:33:59.903Z,1.33
2023-04-28T18:36:51.817Z,1.70
2023-04-28T18:39:47.726Z,2.15
2023-04-28T18:42:39.372Z,1.67
2023-04-28T18:45:35.820Z,3.45
2023-04-28T18:48:26.112Z,1.75
2023-04-28T18:51:18.594Z,1.92
2023-04-28T18:54:16.574Z,1.45
2023-04-28T18:57:10.118Z,3.28
2023-04-28T18:59:59.417Z,2.95
2023-04-28T19:02:48.275Z,2.22
2023-04-28T19:05:37.082Z,1.33
2023-04-28T19:08:25.689Z,2.17
2023-04-28T19:11:14.368Z,2.08
2023-04-28T19:14:04.384Z,2.45
2023-04-28T19:16:53.151Z,5.05
2023-04-28T19:19:41.854Z,1.95
2023-04-28T19:22:32.588Z,3.08
2023-04-28T19:25:21.414Z,1.45
2023-04-28T19:28:11.674Z,1.55
2023-04-28T19:31:01.838Z,1.95
2023-04-28T19:33:50.685Z,3.53
2023-04-28T19:36:39.279Z,2.55
2023-04-28T19:39:29.324Z,0.82
2023-04-28T19:42:18.435Z,2.22
2023-04-28T19:45:09.323Z,0.65
2023-04-28T19:47:59.533Z,1.60
2023-04-28T19:50:48.192Z,1.98
2023-04-28T19:53:40.486Z,3.15
2023-04-28T19:56:29.180Z,3.85
2023-04-28T19:59:17.839Z,1.80
2023-04-28T20:02:08.234Z,1.35
2023-04-28T20:04:58.672Z,0.85
2023-04-28T20:07:47.675Z,1.58
2023-04-28T20:10:36.280Z,0.65
2023-04-28T20:13:27.279Z,0.55
2023-04-28T20:16:16.991Z,1.30
2023-04-28T20:19:06.125Z,1.50
2023-04-28T20:21:56.607Z,2.05
2023-04-28T20:24:45.443Z,0.50
2023-04-28T20:27:35.153Z,4.15
2023-04-28T20:30:24.152Z,0.43
2023-04-28T20:33:13.377Z,1.35
2023-04-28T20:36:02.094Z,1.08
2023-04-28T20:38:52.347Z,1.58
2023-04-28T20:41:41.752Z,1.17
2023-04-28T20:44:30.637Z,1.13
2023-04-28T20:47:19.353Z,2.35
2023-04-28T20:50:10.866Z,1.35
2023-04-28T20:52:59.502Z,1.55
2023-04-28T20:55:49.702Z,1.08
2023-04-28T20:58:38.516Z,1.10
2023-04-28T21:01:32.380Z,0.65
2023-04-28T21:04:21.104Z,0.85
2023-04-28T21:07:09.788Z,0.80
2023-04-28T21:10:00.975Z,0.47
2023-04-28T21:12:52.257Z,1.17
2023-04-28T21:15:41.898Z,0.70
2023-04-28T21:18:30.785Z,0.80
2023-04-28T21:21:19.444Z,3.05
2023-04-28T21:24:09.301Z,3.95
2023-04-28T21:26:58.313Z,1.92
2023-04-28T21:29:48.606Z,3.00
2023-04-28T21:32:37.430Z,2.15
2023-04-28T21:35:26.170Z,3.95
2023-04-28T21:38:15.561Z,1.38
2023-04-28T21:41:04.344Z,2.53
2023-04-28T21:43:53.018Z,2.15
2023-04-28T21:46:43.056Z,1.23
2023-04-28T21:49:31.977Z,3.15
2023-04-28T21:52:20.774Z,3.70
2023-04-28T21:55:10.281Z,2.25
2023-04-28T21:58:00.416Z,1.45
2023-04-28T22:00:49.845Z,4.90
2023-04-28T22:03:40.538Z,3.58
2023-04-28T22:06:29.353Z,1.83
2023-04-28T22:09:18.155Z,1.23
2023-04-28T22:12:08.774Z,3.42
2023-04-28T22:14:57.405Z,2.70
2023-04-28T22:17:46.060Z,2.25
2023-04-28T22:20:36.734Z,1.85
2023-04-28T22:23:25.537Z,13.95
2023-04-28T22:26:14.928Z,0.88
2023-04-28T22:29:05.934Z,1.70
2023-04-28T22:31:54.596Z,5.00
2023-04-28T22:34:43.308Z,0.60
2023-04-28T22:37:34.093Z,0.65
2023-04-28T22:40:22.991Z,1.98
2023-04-28T22:43:11.854Z,0.50
2023-04-28T22:46:00.514Z,1.00
2023-04-28T22:48:49.818Z,4.80
2023-04-28T22:51:38.523Z,1.65
2023-04-28T22:54:28.551Z,0.60
2023-04-28T22:57:17.280Z,0.75
2023-04-28T23:00:06.967Z,1.75
2023-04-28T23:02:55.818Z,1.08
2023-04-28T23:05:44.501Z,1.85
2023-04-28T23:08:35.586Z,1.38
2023-04-28T23:11:27.294Z,1.20
2023-04-28T23:14:15.980Z,0.60
2023-04-28T23:17:04.570Z,1.75
2023-04-28T23:19:53.312Z,0.73
2023-04-28T23:22:41.962Z,0.60
2023-04-28T23:25:30.593Z,0.30
2023-04-28T23:28:20.702Z,0.20
2023-04-28T23:31:09.340Z,1.77
2023-04-28T23:33:58.633Z,0.25
2023-04-28T23:36:47.362Z,0.77
2023-04-28T23:39:36.148Z,0.30
2023-04-28T23:42:25.191Z,0.70
2023-04-28T23:45:15.914Z,0.43
2023-04-28T23:48:04.582Z,1.52
2023-04-28T23:50:53.543Z,0.85
2023-04-28T23:53:42.158Z,0.50
2023-04-28T23:56:31.381Z,1.00
2023-04-28T23:59:19.978Z,1.38
